Time;durP1;ratioP1;P1;durP2;ratioP2;P2;SDS_P1;SDS_P2;PMS_P1;PMS_P2;Temp;Humidity;BMP_temperature;BMP_pressure;BME280_temperature;BME280_humidity;BME280_pressure;Samples;Min_cycle;Max_cycle;Signal;HPM_P1;HPM_P2
2021/06/05 00:00:44;;;;;;;4.80;1.20;;;19.40;99.90;;;;;;5053991;28;20035;-65
2021/06/05 00:03:11;;;;;;;2.03;1.38;;;19.50;99.90;;;;;;5071310;28;20040;-65
2021/06/05 00:05:53;;;;;;;2.90;1.02;;;19.70;99.90;;;;;;5071739;28;20437;-65
2021/06/05 00:08:21;;;;;;;3.15;1.30;;;19.50;99.90;;;;;;5053824;28;20025;-65
2021/06/05 00:10:51;;;;;;;5.43;1.70;;;19.50;99.90;;;;;;5045905;28;20085;-65
2021/06/05 00:13:24;;;;;;;2.70;1.52;;;19.40;99.90;;;;;;5061793;28;20031;-70
2021/06/05 00:15:50;;;;;;;3.83;1.52;;;19.30;99.90;;;;;;5071594;28;20091;-66
2021/06/05 00:18:16;;;;;;;4.47;1.17;;;19.20;99.90;;;;;;5053234;28;20075;-65
2021/06/05 00:20:43;;;;;;;2.75;1.20;;;19.30;99.90;;;;;;5071111;28;20060;-65
2021/06/05 00:23:11;;;;;;;4.15;1.85;;;19.20;99.90;;;;;;5070835;28;20024;-66
2021/06/05 00:25:37;;;;;;;4.18;1.50;;;19.30;99.90;;;;;;5053569;28;20411;-64
2021/06/05 00:28:03;;;;;;;2.08;1.40;;;19.20;99.90;;;;;;5071023;28;20036;-65
2021/06/05 00:30:30;;;;;;;2.40;1.23;;;19.30;99.90;;;;;;5053021;28;20020;-65
2021/06/05 00:32:56;;;;;;;1.75;1.10;;;19.10;99.90;;;;;;5070455;28;20107;-66
2021/06/05 00:35:25;;;;;;;2.00;1.20;;;19.00;99.90;;;;;;5070864;28;20028;-66
2021/06/05 00:37:50;;;;;;;2.20;1.27;;;18.90;99.90;;;;;;5070530;28;20032;-65
2021/06/05 00:40:18;;;;;;;3.00;1.38;;;19.10;99.90;;;;;;5071272;28;20040;-64
2021/06/05 00:42:45;;;;;;;2.75;1.48;;;19.10;99.90;;;;;;5053087;28;20032;-64
2021/06/05 00:45:12;;;;;;;1.75;1.08;;;19.00;99.90;;;;;;5053231;28;20374;-64
2021/06/05 00:47:38;;;;;;;3.05;1.27;;;18.90;99.90;;;;;;5071262;28;20107;-63
2021/06/05 00:50:05;;;;;;;6.60;1.88;;;18.90;99.90;;;;;;5052183;28;20516;-63
2021/06/05 00:52:30;;;;;;;1.80;1.30;;;18.70;99.90;;;;;;5052699;28;20101;-64
2021/06/05 00:54:57;;;;;;;2.03;1.05;;;18.80;99.90;;;;;;5052529;28;20401;-64
2021/06/05 00:57:23;;;;;;;3.40;1.20;;;18.90;99.90;;;;;;5052771;28;20033;-64
2021/06/05 00:59:48;;;;;;;3.30;1.35;;;18.90;99.90;;;;;;5070204;28;20063;-65
2021/06/05 01:02:14;;;;;;;6.55;1.40;;;18.90;99.90;;;;;;5070994;28;20056;-64
2021/06/05 01:04:40;;;;;;;6.78;1.27;;;19.00;99.90;;;;;;5070355;28;20028;-64
2021/06/05 01:07:21;;;;;;;3.60;1.30;;;18.90;99.90;;;;;;5069834;28;20029;-64
2021/06/05 01:10:00;;;;;;;1.90;1.42;;;18.80;99.90;;;;;;5070278;28;20334;-64
2021/06/05 01:12:52;;;;;;;3.42;1.00;;;18.90;99.90;;;;;;5070713;28;20040;-64
2021/06/05 01:15:44;;;;;;;5.05;1.00;;;18.80;99.90;;;;;;5070789;28;20035;-64
2021/06/05 01:18:37;;;;;;;1.45;1.02;;;18.90;99.90;;;;;;5052296;28;20065;-65
2021/06/05 01:21:25;;;;;;;1.90;1.15;;;19.00;99.90;;;;;;5070882;28;20036;-64
2021/06/05 01:24:17;;;;;;;6.60;1.33;;;19.10;99.90;;;;;;5041184;28;20036;-65
2021/06/05 01:26:50;;;;;;;3.63;1.40;;;19.00;99.90;;;;;;5070629;28;20037;-65
2021/06/05 01:29:31;;;;;;;3.97;1.73;;;18.90;99.90;;;;;;5071208;28;20020;-65
2021/06/05 01:32:01;;;;;;;4.63;1.83;;;18.90;99.90;;;;;;5069351;28;20037;-65
2021/06/05 01:34:31;;;;;;;2.30;1.27;;;18.90;99.90;;;;;;5070689;28;20362;-65
2021/06/05 01:36:57;;;;;;;4.47;1.52;;;18.80;99.90;;;;;;5051636;28;20537;-65
2021/06/05 01:39:27;;;;;;;3.40;1.40;;;18.80;99.90;;;;;;5070204;28;20031;-66
2021/06/05 01:41:55;;;;;;;2.47;1.63;;;18.90;99.90;;;;;;5070127;28;20071;-66
2021/06/05 01:44:23;;;;;;;3.42;1.40;;;18.90;99.90;;;;;;5052292;28;20029;-66
2021/06/05 01:46:50;;;;;;;2.88;1.40;;;19.00;99.90;;;;;;5069730;28;20033;-84
2021/06/05 01:49:17;;;;;;;2.55;1.50;;;19.00;99.90;;;;;;5070215;28;20166;-66
2021/06/05 01:51:47;;;;;;;2.92;1.67;;;19.00;99.90;;;;;;5070327;28;20060;-65
2021/06/05 01:54:22;;;;;;;4.13;2.20;;;19.00;99.90;;;;;;5070126;28;20381;-66
2021/06/05 01:56:54;;;;;;;2.42;1.95;;;18.90;99.90;;;;;;5052310;28;20127;-64
2021/06/05 01:59:20;;;;;;;5.68;2.47;;;19.00;99.90;;;;;;5070073;28;20078;-65
2021/06/05 02:01:46;;;;;;;4.18;1.90;;;18.90;99.90;;;;;;5070303;28;20039;-64
2021/06/05 02:04:14;;;;;;;5.90;2.30;;;18.90;99.90;;;;;;5051862;28;20025;-65
2021/06/05 02:06:41;;;;;;;5.90;2.80;;;18.80;99.90;;;;;;5070178;28;20048;-64
2021/06/05 02:09:08;;;;;;;6.20;3.50;;;18.80;99.90;;;;;;5069020;28;20025;-65
2021/06/05 02:11:43;;;;;;;4.10;3.60;;;18.80;99.90;;;;;;5051865;28;20195;-66
2021/06/05 02:14:13;;;;;;;5.72;3.70;;;18.80;99.90;;;;;;5069457;28;20028;-65
2021/06/05 02:16:48;;;;;;;5.90;4.25;;;18.90;99.90;;;;;;5052342;28;20033;-66
2021/06/05 02:19:28;;;;;;;4.43;4.03;;;18.90;99.90;;;;;;5051851;28;20094;-66
2021/06/05 02:21:57;;;;;;;11.48;5.90;;;18.80;99.90;;;;;;5070009;28;20033;-65
2021/06/05 02:24:40;;;;;;;13.32;6.10;;;18.90;99.90;;;;;;5069864;28;20032;-64
2021/06/05 02:27:06;;;;;;;9.80;6.32;;;18.90;99.90;;;;;;5069904;28;20053;-64
2021/06/05 02:29:39;;;;;;;7.32;6.25;;;18.90;99.90;;;;;;5051941;28;20032;-65
2021/06/05 02:32:08;;;;;;;6.32;5.57;;;18.90;99.90;;;;;;5035124;28;20133;-64
2021/06/05 02:34:34;;;;;;;7.10;6.40;;;19.00;99.90;;;;;;5069774;28;20479;-64
2021/06/05 02:37:03;;;;;;;7.65;5.85;;;19.00;99.90;;;;;;5051374;28;20182;-65
2021/06/05 02:39:29;;;;;;;8.27;6.40;;;18.90;99.90;;;;;;5051848;28;20028;-65
2021/06/05 02:41:56;;;;;;;13.90;7.57;;;18.90;99.90;;;;;;5051327;28;20118;-67
2021/06/05 02:44:26;;;;;;;8.05;5.57;;;18.90;99.90;;;;;;5071957;28;20101;-65
2021/06/05 02:46:52;;;;;;;9.20;7.50;;;18.90;99.90;;;;;;5073546;28;20031;-64
2021/06/05 02:49:17;;;;;;;9.77;6.78;;;19.00;99.90;;;;;;5073320;28;20046;-64
2021/06/05 02:51:45;;;;;;;14.48;7.60;;;18.90;99.90;;;;;;5055611;28;20127;-65
2021/06/05 02:54:11;;;;;;;9.32;6.57;;;18.80;99.90;;;;;;5073096;28;20036;-65
2021/06/05 02:56:36;;;;;;;12.57;6.43;;;18.80;99.90;;;;;;5055626;28;20020;-65
2021/06/05 02:59:03;;;;;;;8.70;7.13;;;18.80;99.90;;;;;;5072924;28;20024;-65
2021/06/05 03:01:29;;;;;;;12.05;7.82;;;18.90;99.90;;;;;;5055329;28;20024;-66
2021/06/05 03:03:54;;;;;;;9.45;7.47;;;18.90;99.90;;;;;;5072860;28;20044;-74
2021/06/05 03:06:20;;;;;;;7.28;6.50;;;18.90;99.90;;;;;;5073042;28;20043;-65
2021/06/05 03:08:46;;;;;;;8.23;6.85;;;18.70;99.90;;;;;;5054945;28;20047;-65
2021/06/05 03:11:16;;;;;;;10.20;7.40;;;18.60;99.90;;;;;;5054510;28;20473;-65
2021/06/05 03:13:43;;;;;;;8.40;6.50;;;18.50;99.90;;;;;;5073127;28;20016;-65
2021/06/05 03:16:10;;;;;;;9.07;6.57;;;18.60;99.90;;;;;;5054014;28;20435;-64
2021/06/05 03:18:36;;;;;;;8.02;6.32;;;18.70;99.90;;;;;;5054869;28;20404;-65
2021/06/05 03:21:03;;;;;;;7.43;6.00;;;18.70;99.90;;;;;;5054309;28;20071;-65
2021/06/05 03:23:31;;;;;;;6.97;6.30;;;18.60;99.90;;;;;;5073041;28;20048;-64
2021/06/05 03:25:58;;;;;;;7.97;6.05;;;18.50;99.90;;;;;;5054292;28;20380;-64
2021/06/05 03:28:26;;;;;;;11.13;6.43;;;18.30;99.90;;;;;;5054916;28;20079;-65
2021/06/05 03:30:52;;;;;;;7.68;6.22;;;18.20;99.90;;;;;;5072536;28;20047;-64
2021/06/05 03:33:20;;;;;;;14.45;6.70;;;18.30;99.90;;;;;;5072138;28;20458;-64
2021/06/05 03:35:46;;;;;;;9.45;6.93;;;18.20;99.90;;;;;;5072199;28;20035;-65
2021/06/05 03:38:12;;;;;;;12.30;6.97;;;18.00;99.90;;;;;;5071837;28;20099;-64
2021/06/05 03:40:38;;;;;;;12.30;7.10;;;17.90;99.90;;;;;;5072091;28;20089;-64
2021/06/05 03:43:05;;;;;;;7.90;6.15;;;17.90;99.90;;;;;;5053604;28;20454;-64
2021/06/05 03:45:30;;;;;;;7.70;6.75;;;18.00;99.90;;;;;;5053840;28;20040;-63
2021/06/05 03:47:59;;;;;;;8.60;7.00;;;18.00;99.90;;;;;;5053519;28;20021;-81
2021/06/05 03:50:29;;;;;;;8.50;7.03;;;18.00;99.90;;;;;;5071840;28;20500;-64
2021/06/05 03:52:54;;;;;;;11.30;7.43;;;18.10;99.90;;;;;;5072023;28;20078;-64
2021/06/05 03:55:21;;;;;;;9.70;7.63;;;18.00;99.90;;;;;;5070772;28;20040;-64
2021/06/05 03:57:47;;;;;;;14.85;8.02;;;18.00;99.90;;;;;;5053883;28;20028;-63
2021/06/05 04:00:20;;;;;;;10.40;7.25;;;18.00;99.90;;;;;;5053194;28;20527;-63
2021/06/05 04:02:46;;;;;;;9.40;7.60;;;17.90;99.90;;;;;;5072063;28;20090;-62
2021/06/05 04:05:12;;;;;;;11.32;9.00;;;17.90;99.90;;;;;;5071055;28;20457;-64
2021/06/05 04:07:38;;;;;;;11.93;8.70;;;17.80;99.90;;;;;;5053782;28;20420;-63
2021/06/05 04:10:06;;;;;;;9.77;7.47;;;17.80;99.90;;;;;;5071107;28;20056;-63
2021/06/05 04:12:32;;;;;;;9.15;7.32;;;17.90;99.90;;;;;;5071797;28;20035;-63
2021/06/05 04:14:58;;;;;;;10.15;7.28;;;18.00;99.90;;;;;;5053332;28;20028;-81
2021/06/05 04:17:23;;;;;;;8.88;7.63;;;18.20;99.90;;;;;;5071341;28;20414;-64
2021/06/05 04:19:49;;;;;;;7.80;6.90;;;18.30;99.90;;;;;;5053639;28;20024;-64
2021/06/05 04:22:15;;;;;;;9.10;7.53;;;18.50;99.90;;;;;;5071401;28;20043;-64
2021/06/05 04:24:41;;;;;;;13.85;7.15;;;18.40;99.90;;;;;;5071449;28;20021;-64
2021/06/05 04:27:08;;;;;;;14.32;7.82;;;18.20;99.90;;;;;;5071205;28;20106;-64
2021/06/05 04:29:34;;;;;;;11.30;7.88;;;18.10;99.90;;;;;;5071154;28;20060;-63
2021/06/05 04:32:00;;;;;;;9.93;8.85;;;17.80;99.90;;;;;;5070506;28;20136;-67
2021/06/05 04:34:26;;;;;;;12.65;9.45;;;17.90;99.90;;;;;;5053370;28;20029;-63
2021/06/05 04:36:52;;;;;;;11.02;8.90;;;17.80;99.90;;;;;;5071138;28;20461;-63
2021/06/05 04:39:19;;;;;;;14.32;9.48;;;17.70;99.90;;;;;;5070888;28;20035;-63
2021/06/05 04:41:45;;;;;;;14.20;10.00;;;17.80;99.90;;;;;;5053412;28;20380;-63
2021/06/05 04:44:11;;;;;;;9.07;7.82;;;17.80;99.90;;;;;;5070742;28;20032;-63
2021/06/05 04:46:38;;;;;;;8.25;6.80;;;18.00;99.90;;;;;;5053236;28;20066;-63
2021/06/05 04:49:04;;;;;;;9.02;7.40;;;18.40;99.90;;;;;;5052724;28;20028;-64
2021/06/05 04:51:30;;;;;;;8.90;6.85;;;18.70;99.90;;;;;;5049642;28;20123;-64
2021/06/05 04:53:56;;;;;;;11.38;8.30;;;18.90;99.90;;;;;;5049930;28;20141;-65
2021/06/05 04:56:30;;;;;;;9.00;8.05;;;19.10;99.90;;;;;;5050284;28;20056;-65
2021/06/05 04:58:56;;;;;;;8.52;7.55;;;19.10;99.90;;;;;;5050002;28;20075;-64
2021/06/05 05:01:22;;;;;;;13.52;9.02;;;19.20;99.90;;;;;;5050983;28;20073;-64
2021/06/05 05:03:48;;;;;;;10.05;8.52;;;19.30;99.90;;;;;;5051207;28;20072;-65
2021/06/05 05:06:14;;;;;;;9.35;7.50;;;19.30;99.90;;;;;;5050755;28;20044;-64
2021/06/05 05:08:39;;;;;;;8.13;7.32;;;19.40;99.90;;;;;;5050850;28;20127;-64
2021/06/05 05:11:05;;;;;;;11.95;8.52;;;19.40;99.90;;;;;;5049126;28;20432;-65
2021/06/05 05:13:34;;;;;;;10.30;7.70;;;19.40;99.90;;;;;;5051047;28;20472;-65
2021/06/05 05:16:01;;;;;;;12.23;8.50;;;19.60;99.90;;;;;;5051015;28;20211;-64
2021/06/05 05:18:27;;;;;;;10.88;7.55;;;19.40;99.90;;;;;;5050783;28;20112;-64
2021/06/05 05:20:54;;;;;;;8.15;7.25;;;19.40;99.90;;;;;;5049593;28;20174;-64
2021/06/05 05:23:25;;;;;;;8.52;7.63;;;19.50;99.90;;;;;;5050651;28;20024;-64
2021/06/05 05:25:51;;;;;;;11.23;8.93;;;19.50;99.90;;;;;;5051339;28;20029;-64
2021/06/05 05:28:18;;;;;;;9.52;8.63;;;19.30;99.90;;;;;;5050090;28;20040;-64
2021/06/05 05:30:53;;;;;;;10.32;8.73;;;19.10;99.90;;;;;;5049354;28;20620;-63
2021/06/05 05:33:24;;;;;;;8.02;7.20;;;19.00;99.90;;;;;;5048688;28;20354;-64
2021/06/05 05:35:51;;;;;;;8.45;7.53;;;19.10;99.90;;;;;;5050742;28;20029;-63
2021/06/05 05:38:18;;;;;;;7.90;6.90;;;19.00;99.90;;;;;;5048755;28;20055;-64
2021/06/05 05:40:45;;;;;;;9.90;7.85;;;19.10;99.90;;;;;;5049619;28;20021;-64
2021/06/05 05:43:11;;;;;;;9.63;7.50;;;19.30;99.90;;;;;;5049981;28;20100;-63
2021/06/05 05:45:39;;;;;;;11.75;7.57;;;19.50;99.90;;;;;;5050551;28;20465;-64
2021/06/05 05:48:07;;;;;;;10.07;7.40;;;19.40;99.90;;;;;;5048309;28;20523;-66
2021/06/05 05:50:35;;;;;;;8.15;7.05;;;19.40;99.90;;;;;;5052643;28;20351;-65
2021/06/05 05:53:01;;;;;;;6.95;5.88;;;19.50;99.90;;;;;;5052727;28;20029;-64
2021/06/05 05:55:28;;;;;;;5.15;4.60;;;19.80;99.90;;;;;;5069536;28;20389;-63
2021/06/05 05:57:53;;;;;;;4.85;3.38;;;19.90;99.90;;;;;;5052285;28;20031;-64
2021/06/05 06:00:29;;;;;;;5.35;3.90;;;19.80;99.90;;;;;;5051878;28;20025;-65
2021/06/05 06:02:55;;;;;;;3.28;2.97;;;19.70;99.90;;;;;;5070652;28;20029;-64
2021/06/05 06:05:21;;;;;;;4.32;3.67;;;19.80;99.90;;;;;;5069733;28;20055;-65
2021/06/05 06:07:46;;;;;;;4.97;4.18;;;19.70;99.90;;;;;;5070097;28;20373;-64
2021/06/05 06:10:15;;;;;;;5.35;3.80;;;19.90;99.90;;;;;;5051304;28;20318;-64
2021/06/05 06:12:41;;;;;;;8.55;4.18;;;20.10;99.90;;;;;;5069962;28;20032;-63
2021/06/05 06:15:13;;;;;;;9.65;5.70;;;20.30;99.90;;;;;;5051518;28;20357;-66
2021/06/05 06:17:43;;;;;;;7.25;5.68;;;20.10;99.90;;;;;;5052058;28;20036;-63
2021/06/05 06:20:14;;;;;;;8.10;6.07;;;20.20;99.90;;;;;;5054678;28;20108;-63
2021/06/05 06:22:40;;;;;;;10.05;6.28;;;20.10;99.90;;;;;;5055914;28;20032;-64
2021/06/05 06:25:07;;;;;;;7.60;5.25;;;20.30;99.90;;;;;;5073597;28;20032;-81
2021/06/05 06:27:34;;;;;;;7.68;6.47;;;20.40;99.90;;;;;;5055639;28;20025;-64
2021/06/05 06:30:00;;;;;;;9.50;7.78;;;20.40;99.90;;;;;;5055319;28;20386;-63
2021/06/05 06:32:27;;;;;;;9.60;7.28;;;20.30;99.90;;;;;;5073095;28;20292;-63
2021/06/05 06:34:53;;;;;;;7.68;6.28;;;20.10;99.90;;;;;;5073582;28;20020;-64
2021/06/05 06:37:19;;;;;;;7.43;6.00;;;20.30;99.90;;;;;;5072804;28;20064;-64
2021/06/05 06:39:44;;;;;;;7.65;5.90;;;20.20;99.90;;;;;;5073300;28;20435;-63
2021/06/05 06:42:10;;;;;;;7.82;6.40;;;20.20;99.90;;;;;;5073031;28;20439;-64
2021/06/05 06:44:36;;;;;;;6.28;5.63;;;20.20;99.90;;;;;;5055221;28;20024;-63
2021/06/05 06:47:06;;;;;;;6.88;5.95;;;20.30;99.90;;;;;;5072847;28;20131;-64
2021/06/05 06:49:32;;;;;;;6.85;5.72;;;20.40;99.90;;;;;;5072352;28;20021;-64
2021/06/05 06:51:57;;;;;;;6.38;4.65;;;20.40;99.90;;;;;;5073187;28;20098;-65
2021/06/05 06:54:23;;;;;;;4.75;3.85;;;20.40;99.90;;;;;;5072522;28;20024;-65
2021/06/05 06:56:49;;;;;;;5.10;3.72;;;20.40;99.90;;;;;;5073221;28;20089;-64
2021/06/05 06:59:15;;;;;;;6.65;4.93;;;20.40;99.90;;;;;;5072293;28;20028;-64
2021/06/05 07:01:42;;;;;;;5.47;4.63;;;20.30;99.90;;;;;;5054548;28;20025;-64
2021/06/05 07:04:08;;;;;;;13.65;5.80;;;20.30;99.90;;;;;;5054916;28;20029;-64
2021/06/05 07:06:34;;;;;;;6.55;5.53;;;20.40;99.90;;;;;;5072786;28;20452;-64
2021/06/05 07:09:00;;;;;;;6.15;5.38;;;20.40;99.90;;;;;;5073200;28;20029;-65
2021/06/05 07:11:30;;;;;;;6.25;4.85;;;20.40;99.90;;;;;;5054526;28;20330;-64
2021/06/05 07:13:57;;;;;;;7.55;5.90;;;20.40;99.90;;;;;;5072741;28;20032;-65
2021/06/05 07:16:23;;;;;;;8.15;5.72;;;20.50;99.90;;;;;;5071973;28;20032;-65
2021/06/05 07:18:50;;;;;;;8.73;5.55;;;20.40;99.90;;;;;;5054906;28;20073;-65
2021/06/05 07:21:16;;;;;;;7.55;5.78;;;20.40;99.90;;;;;;5053539;28;20128;-64
2021/06/05 07:23:43;;;;;;;6.32;5.22;;;20.60;99.90;;;;;;5054486;28;20102;-64
2021/06/05 07:26:13;;;;;;;8.98;6.57;;;20.50;99.90;;;;;;5072692;28;20036;-64
2021/06/05 07:28:43;;;;;;;7.65;4.93;;;20.50;99.90;;;;;;5054570;28;20510;-64
2021/06/05 07:31:11;;;;;;;7.93;5.72;;;20.50;99.90;;;;;;5070939;28;20036;-64
2021/06/05 07:33:38;;;;;;;8.10;7.30;;;20.40;99.90;;;;;;5072089;28;20440;-65
2021/06/05 07:36:05;;;;;;;11.68;6.78;;;20.30;99.90;;;;;;5054134;28;20453;-65
2021/06/05 07:38:31;;;;;;;10.02;7.18;;;20.50;99.90;;;;;;5053055;28;20615;-65
2021/06/05 07:40:58;;;;;;;8.13;6.47;;;20.60;99.90;;;;;;5071705;28;20028;-64
2021/06/05 07:43:27;;;;;;;12.30;6.60;;;20.50;99.90;;;;;;5053303;28;20063;-65
2021/06/05 07:45:54;;;;;;;8.82;6.68;;;20.40;99.90;;;;;;5053582;28;20028;-65
2021/06/05 07:48:21;;;;;;;11.85;7.07;;;20.40;99.90;;;;;;5070722;28;20077;-64
2021/06/05 07:50:48;;;;;;;9.38;7.40;;;20.50;99.90;;;;;;5071362;28;20052;-65
2021/06/05 07:53:14;;;;;;;10.07;6.88;;;20.40;99.90;;;;;;5071005;28;20051;-65
2021/06/05 07:55:39;;;;;;;7.55;6.82;;;20.40;99.90;;;;;;5053711;28;20469;-64
2021/06/05 07:58:06;;;;;;;8.48;7.53;;;20.50;99.90;;;;;;5053062;28;20162;-64
2021/06/05 08:00:34;;;;;;;14.30;7.40;;;20.60;99.90;;;;;;5071155;28;20244;-65
2021/06/05 08:03:00;;;;;;;10.25;6.90;;;20.60;99.90;;;;;;5071340;28;20040;-64
2021/06/05 08:05:26;;;;;;;10.15;7.40;;;20.60;99.90;;;;;;5071136;28;20036;-64
2021/06/05 08:07:52;;;;;;;9.07;8.20;;;20.80;99.90;;;;;;5071031;28;20028;-65
2021/06/05 08:10:19;;;;;;;9.25;7.80;;;20.90;99.90;;;;;;5052750;28;20457;-66
2021/06/05 08:12:45;;;;;;;9.43;7.75;;;21.00;99.90;;;;;;5053238;28;20041;-65
2021/06/05 08:15:16;;;;;;;9.02;7.95;;;21.10;99.90;;;;;;5071472;28;20145;-66
2021/06/05 08:17:41;;;;;;;7.35;6.63;;;21.10;99.90;;;;;;5071441;28;20033;-65
2021/06/05 08:20:10;;;;;;;6.90;5.72;;;21.20;99.90;;;;;;5071271;28;20082;-65
2021/06/05 08:22:36;;;;;;;7.35;6.05;;;21.30;99.90;;;;;;5052391;28;20075;-65
2021/06/05 08:25:04;;;;;;;4.95;4.45;;;21.50;99.90;;;;;;5071000;28;20465;-65
2021/06/05 08:27:30;;;;;;;7.25;4.50;;;21.40;99.90;;;;;;5051999;28;20426;-65
2021/06/05 08:29:55;;;;;;;6.97;5.78;;;21.20;99.90;;;;;;5070717;28;20115;-65
2021/06/05 08:32:21;;;;;;;6.85;6.13;;;21.20;99.90;;;;;;5070339;28;20052;-65
2021/06/05 08:34:47;;;;;;;6.20;5.38;;;21.50;99.90;;;;;;5071002;28;20060;-65
2021/06/05 08:37:13;;;;;;;7.93;5.45;;;21.50;99.90;;;;;;5070508;28;20075;-65
2021/06/05 08:39:39;;;;;;;7.35;6.47;;;21.70;99.90;;;;;;5053060;28;20021;-65
2021/06/05 08:42:11;;;;;;;6.80;5.40;;;21.80;99.90;;;;;;5070281;28;20059;-66
2021/06/05 08:44:41;;;;;;;6.00;5.43;;;22.00;99.90;;;;;;5070867;28;20035;-65
2021/06/05 08:47:21;;;;;;;10.30;6.25;;;21.90;99.90;;;;;;5053214;28;20029;-67
2021/06/05 08:49:48;;;;;;;7.38;4.90;;;21.90;99.90;;;;;;5052963;28;20115;-65
2021/06/05 08:52:36;;;;;;;9.02;5.07;;;22.00;99.90;;;;;;5071049;28;20170;-66
2021/06/05 08:55:46;;;;;;;6.47;5.45;;;21.90;99.90;;;;;;5070680;28;20465;-65
2021/06/05 08:58:35;;;;;;;11.70;5.28;;;22.20;99.90;;;;;;5022277;28;20136;-68
2021/06/05 09:01:06;;;;;;;9.00;5.15;;;22.10;99.90;;;;;;5051489;28;20037;-66
2021/06/05 09:03:35;;;;;;;10.13;4.53;;;22.20;99.90;;;;;;5070018;28;20026;-65
2021/06/05 09:06:09;;;;;;;5.95;4.53;;;22.20;99.90;;;;;;5052334;28;20028;-66
2021/06/05 09:08:35;;;;;;;4.32;3.78;;;22.20;99.90;;;;;;5069590;28;20037;-65
2021/06/05 09:11:04;;;;;;;4.22;2.95;;;22.20;99.90;;;;;;5051946;28;20074;-65
2021/06/05 09:13:31;;;;;;;5.15;3.13;;;22.40;99.90;;;;;;5069927;28;20102;-66
2021/06/05 09:16:16;;;;;;;3.00;2.70;;;22.90;99.90;;;;;;5070309;28;20028;-64
2021/06/05 09:19:08;;;;;;;13.00;3.55;;;23.50;99.90;;;;;;5051407;28;20465;-65
2021/06/05 09:21:40;;;;;;;5.20;2.80;;;24.00;99.90;;;;;;5069369;28;20050;-64
2021/06/05 09:24:17;;;;;;;3.97;3.25;;;24.20;99.90;;;;;;5052036;28;20090;-64
2021/06/05 09:27:08;;;;;;;6.57;3.58;;;24.10;99.90;;;;;;5052770;28;20068;-65
2021/06/05 09:29:55;;;;;;;3.90;3.40;;;24.40;99.90;;;;;;5059490;28;20036;-65
2021/06/05 09:32:34;;;;;;;3.67;2.50;;;24.40;99.90;;;;;;5069274;28;20071;-65
2021/06/05 09:35:08;;;;;;;6.22;2.97;;;24.10;99.90;;;;;;5051353;28;20096;-65
2021/06/05 09:37:55;;;;;;;6.22;2.70;;;24.10;99.90;;;;;;5050704;28;20029;-65
2021/06/05 09:40:33;;;;;;;2.47;2.28;;;24.00;99.90;;;;;;5050780;28;20033;-65
2021/06/05 09:43:07;;;;;;;4.85;2.42;;;23.70;99.90;;;;;;5051947;28;20025;-65
2021/06/05 09:45:40;;;;;;;2.92;1.80;;;23.90;99.90;;;;;;5050622;28;20029;-65
2021/06/05 09:48:24;;;;;;;3.58;2.13;;;24.10;99.90;;;;;;5051387;28;20101;-65
2021/06/05 09:50:53;;;;;;;2.42;1.70;;;24.10;99.90;;;;;;5051397;28;20146;-64
2021/06/05 09:53:29;;;;;;;3.90;1.60;;;24.00;99.90;;;;;;5068097;28;20028;-79
2021/06/05 09:55:58;;;;;;;3.42;2.30;;;24.10;99.90;;;;;;5069299;28;20119;-49
2021/06/05 09:58:45;;;;;;;2.42;1.50;;;23.90;99.90;;;;;;5069366;28;20168;-51
2021/06/05 10:01:29;;;;;;;3.10;1.90;;;24.00;99.90;;;;;;5051253;28;20156;-50
2021/06/05 10:04:08;;;;;;;2.95;1.83;;;23.90;99.90;;;;;;5050660;28;20043;-63
2021/06/05 10:06:42;;;;;;;3.78;1.70;;;23.90;99.90;;;;;;5050432;28;20025;-64
2021/06/05 10:09:26;;;;;;;6.13;1.95;;;23.70;99.90;;;;;;5050769;28;20020;-65
2021/06/05 10:12:05;;;;;;;3.47;1.65;;;23.40;99.90;;;;;;5051036;28;20055;-64
2021/06/05 10:14:34;;;;;;;2.97;2.20;;;23.20;99.90;;;;;;5051047;28;20020;-65
2021/06/05 10:17:11;;;;;;;3.30;1.48;;;23.00;99.90;;;;;;5069181;28;20088;-65
2021/06/05 10:19:46;;;;;;;2.00;1.80;;;22.70;99.90;;;;;;5050089;28;20028;-64
2021/06/05 10:22:13;;;;;;;7.45;2.63;;;23.10;99.90;;;;;;5050621;28;20041;-65
2021/06/05 10:25:06;;;;;;;4.65;2.03;;;23.20;99.90;;;;;;5068474;28;20107;-65
2021/06/05 10:27:36;;;;;;;3.20;2.15;;;23.40;99.90;;;;;;5068093;28;20485;-64
2021/06/05 10:30:34;;;;;;;4.03;1.90;;;23.60;99.90;;;;;;5050890;28;20133;-64
2021/06/05 10:33:02;;;;;;;5.53;2.22;;;23.80;99.90;;;;;;5050810;28;20438;-65
2021/06/05 10:35:39;;;;;;;2.55;2.10;;;23.80;99.90;;;;;;5067827;28;20083;-64
2021/06/05 10:38:10;;;;;;;3.08;1.73;;;23.80;99.90;;;;;;5069157;28;20044;-65
2021/06/05 10:40:36;;;;;;;1.83;1.52;;;23.70;99.90;;;;;;5050263;28;20024;-64
2021/06/05 10:43:07;;;;;;;3.05;1.67;;;23.40;99.90;;;;;;5068574;28;20029;-64
2021/06/05 10:45:36;;;;;;;2.70;2.00;;;23.60;99.90;;;;;;5049991;28;20035;-65
2021/06/05 10:48:05;;;;;;;3.08;1.65;;;23.50;99.90;;;;;;5068625;28;20115;-64
2021/06/05 10:50:34;;;;;;;3.55;2.05;;;23.50;99.90;;;;;;5049110;28;20025;-65
2021/06/05 10:53:18;;;;;;;2.17;1.55;;;23.50;99.90;;;;;;5051066;28;20100;-65
2021/06/05 10:55:47;;;;;;;5.13;2.22;;;23.40;99.90;;;;;;5049662;28;20036;-65
2021/06/05 10:58:18;;;;;;;4.63;2.05;;;23.40;99.90;;;;;;5068604;28;20331;-65
2021/06/05 11:00:49;;;;;;;2.75;2.30;;;23.50;99.90;;;;;;5050013;28;20033;-64
2021/06/05 11:03:27;;;;;;;4.13;1.77;;;23.70;99.90;;;;;;5050250;28;20033;-64
2021/06/05 11:06:04;;;;;;;2.17;1.45;;;24.00;99.90;;;;;;5071446;28;20028;-64
2021/06/05 11:08:41;;;;;;;3.53;1.63;;;24.20;99.90;;;;;;5071128;28;20028;-64
2021/06/05 11:11:07;;;;;;;2.63;1.80;;;24.50;99.90;;;;;;5053400;28;20113;-64
2021/06/05 11:13:34;;;;;;;6.85;2.28;;;24.60;99.90;;;;;;5052675;28;20086;-65
2021/06/05 11:16:05;;;;;;;3.88;1.67;;;25.00;99.90;;;;;;5053355;28;20035;-68
2021/06/05 11:18:36;;;;;;;2.30;1.63;;;24.90;99.90;;;;;;5052579;28;20048;-54
2021/06/05 11:21:22;;;;;;;;;;;24.90;99.90;;;;;;5071362;28;20462;-66
2021/06/05 11:23:57;;;;;;;7.70;2.13;;;25.20;99.90;;;;;;5052090;28;20003;-66
2021/06/05 11:26:35;;;;;;;3.13;1.85;;;25.20;99.90;;;;;;5053602;28;20036;-67
2021/06/05 11:29:28;;;;;;;2.30;1.67;;;24.90;99.90;;;;;;5053659;28;20040;-66
2021/06/05 11:31:57;;;;;;;3.58;1.70;;;24.80;99.90;;;;;;5071359;28;20119;-66
2021/06/05 11:34:34;;;;;;;3.72;1.73;;;24.50;99.90;;;;;;5053477;28;20151;-66
2021/06/05 11:37:13;;;;;;;2.65;1.98;;;24.50;99.90;;;;;;5053089;28;20461;-67
2021/06/05 11:39:46;;;;;;;2.55;1.58;;;24.20;99.90;;;;;;5052829;28;20119;-67
2021/06/05 11:42:20;;;;;;;5.57;1.90;;;24.00;99.90;;;;;;5054080;28;20025;-66
2021/06/05 11:45:24;;;;;;;4.95;2.22;;;24.10;99.90;;;;;;5051708;28;20024;-66
2021/06/05 11:47:50;;;;;;;4.00;1.90;;;24.20;99.90;;;;;;5066230;28;20043;-66
2021/06/05 11:50:33;;;;;;;6.70;2.30;;;24.20;99.90;;;;;;5052680;28;20064;-66
2021/06/05 11:53:32;;;;;;;2.45;1.90;;;24.40;99.90;;;;;;5052951;28;20040;-68
2021/06/05 11:56:06;;;;;;;2.50;1.60;;;24.60;99.90;;;;;;5070699;28;20114;-67
2021/06/05 11:58:34;;;;;;;5.30;2.20;;;24.90;99.90;;;;;;5052279;28;20046;-66
2021/06/05 12:01:03;;;;;;;2.58;1.95;;;24.80;99.90;;;;;;5071359;28;20110;-66
2021/06/05 12:03:40;;;;;;;2.78;1.90;;;24.80;99.90;;;;;;5051998;28;20343;-66
2021/06/05 12:06:10;;;;;;;3.33;2.42;;;24.80;99.90;;;;;;5071233;28;20489;-67
2021/06/05 12:08:36;;;;;;;3.55;2.00;;;24.80;99.90;;;;;;5052558;28;20024;-66
2021/06/05 12:11:27;;;;;;;3.63;1.80;;;24.60;99.90;;;;;;5071119;28;20084;-67
2021/06/05 12:14:18;;;;;;;4.22;1.90;;;24.50;99.90;;;;;;5052686;28;20028;-67
2021/06/05 12:16:50;;;;;;;3.47;2.20;;;24.60;99.90;;;;;;5051389;28;20127;-67
2021/06/05 12:19:16;;;;;;;2.15;1.80;;;24.90;99.90;;;;;;5070633;28;20115;-66
2021/06/05 12:21:44;;;;;;;4.82;2.17;;;24.90;99.90;;;;;;5069858;28;20040;-66
2021/06/05 12:24:25;;;;;;;2.63;2.10;;;24.70;99.90;;;;;;5052646;28;20029;-66
2021/06/05 12:27:01;;;;;;;2.38;2.15;;;24.60;99.90;;;;;;5052342;28;20056;-66
2021/06/05 12:29:35;;;;;;;2.47;1.73;;;24.70;99.90;;;;;;5052492;28;20029;-66
2021/06/05 12:32:22;;;;;;;3.47;1.88;;;24.90;99.90;;;;;;5070569;28;20047;-67
2021/06/05 12:34:48;;;;;;;6.80;2.58;;;25.20;99.90;;;;;;5070265;28;20055;-65
2021/06/05 12:37:14;;;;;;;2.22;2.03;;;25.50;99.90;;;;;;5070186;28;20107;-66
2021/06/05 12:39:44;;;;;;;2.72;1.73;;;25.40;99.90;;;;;;5069716;28;20029;-66
2021/06/05 12:42:13;;;;;;;3.03;1.58;;;25.20;99.90;;;;;;5052084;28;20025;-66
2021/06/05 12:44:42;;;;;;;2.90;1.75;;;25.00;99.90;;;;;;5069855;28;20020;-67
2021/06/05 12:47:21;;;;;;;3.45;1.52;;;25.40;99.90;;;;;;5051984;28;20051;-67
2021/06/05 12:49:47;;;;;;;6.78;1.88;;;25.80;99.90;;;;;;5051420;28;20031;-67
2021/06/05 12:52:27;;;;;;;4.40;1.70;;;25.90;99.90;;;;;;5051684;28;20409;-66
2021/06/05 12:55:12;;;;;;;2.17;1.63;;;25.70;99.90;;;;;;5069732;28;20025;-67
2021/06/05 12:57:41;;;;;;;2.60;2.13;;;25.50;99.90;;;;;;5051717;28;20141;-66
2021/06/05 13:00:27;;;;;;;1.92;1.67;;;25.20;99.90;;;;;;5069542;28;20406;-66
2021/06/05 13:02:56;;;;;;;4.70;1.70;;;25.00;99.90;;;;;;5051379;28;20092;-66